sensor_id;sensor_type;location;lat;lon;timestamp;pressure;altitude;pressure_sealevel;temperature;humidity
19811;BME280;10065;49.632;8.346;2023-02-14T00:02:18;102565.84;;;6.34;67.13
19811;BME280;10065;49.632;8.346;2023-02-14T00:04:48;102566.63;;;6.36;67.17
19811;BME280;10065;49.632;8.346;2023-02-14T00:07:15;102563.88;;;6.39;67.10
19811;BME280;10065;49.632;8.346;2023-02-14T00:09:43;102560.56;;;6.34;67.23
19811;BME280;10065;49.632;8.346;2023-02-14T00:12:11;102565.84;;;6.34;67.44
19811;BME280;10065;49.632;8.346;2023-02-14T00:14:39;102557.88;;;6.36;67.29
19811;BME280;10065;49.632;8.346;2023-02-14T00:17:24;102569.28;;;6.36;67.29
19811;BME280;10065;49.632;8.346;2023-02-14T00:19:53;102568.78;;;6.47;66.91
19811;BME280;10065;49.632;8.346;2023-02-14T00:22:21;102568.06;;;6.43;66.56
19811;BME280;10065;49.632;8.346;2023-02-14T00:24:48;102565.94;;;6.33;66.55
19811;BME280;10065;49.632;8.346;2023-02-14T00:27:16;102570.59;;;6.26;66.75
19811;BME280;10065;49.632;8.346;2023-02-14T00:29:44;102562.75;;;6.25;66.83
19811;BME280;10065;49.632;8.346;2023-02-14T00:32:11;102562.00;;;6.23;66.68
19811;BME280;10065;49.632;8.346;2023-02-14T00:34:39;102561.28;;;6.19;66.84
19811;BME280;10065;49.632;8.346;2023-02-14T00:37:08;102559.72;;;6.15;66.78
19811;BME280;10065;49.632;8.346;2023-02-14T00:39:36;102564.38;;;6.09;66.82
19811;BME280;10065;49.632;8.346;2023-02-14T00:42:06;102559.84;;;6.12;66.22
19811;BME280;10065;49.632;8.346;2023-02-14T00:44:34;102563.81;;;6.02;66.71
19811;BME280;10065;49.632;8.346;2023-02-14T00:47:03;102559.53;;;5.99;66.65
19811;BME280;10065;49.632;8.346;2023-02-14T00:49:31;102558.41;;;6.05;66.94
19811;BME280;10065;49.632;8.346;2023-02-14T00:51:59;102552.00;;;6.11;66.96
19811;BME280;10065;49.632;8.346;2023-02-14T00:54:28;102552.56;;;6.17;66.99
19811;BME280;10065;49.632;8.346;2023-02-14T00:56:56;102563.84;;;6.21;67.44
19811;BME280;10065;49.632;8.346;2023-02-14T00:59:24;102562.88;;;6.23;67.32
19811;BME280;10065;49.632;8.346;2023-02-14T01:01:51;102564.41;;;6.27;67.45
19811;BME280;10065;49.632;8.346;2023-02-14T01:04:19;102560.41;;;6.19;67.34
19811;BME280;10065;49.632;8.346;2023-02-14T01:06:47;102558.88;;;6.15;67.73
19811;BME280;10065;49.632;8.346;2023-02-14T01:09:14;102558.00;;;6.14;67.79
19811;BME280;10065;49.632;8.346;2023-02-14T01:11:43;102565.13;;;6.12;67.77
19811;BME280;10065;49.632;8.346;2023-02-14T01:14:11;102558.19;;;6.10;67.91
19811;BME280;10065;49.632;8.346;2023-02-14T01:16:39;102562.41;;;6.14;67.55
19811;BME280;10065;49.632;8.346;2023-02-14T01:19:06;102565.13;;;6.12;67.50
19811;BME280;10065;49.632;8.346;2023-02-14T01:21:35;102564.38;;;6.09;67.63
19811;BME280;10065;49.632;8.346;2023-02-14T01:24:06;102558.66;;;5.99;67.84
19811;BME280;10065;49.632;8.346;2023-02-14T01:26:34;102559.63;;;5.98;67.80
19811;BME280;10065;49.632;8.346;2023-02-14T01:29:04;102555.13;;;6.00;67.58
19811;BME280;10065;49.632;8.346;2023-02-14T01:31:33;102559.63;;;5.98;67.46
19811;BME280;10065;49.632;8.346;2023-02-14T01:34:01;102559.69;;;5.96;67.25
19811;BME280;10065;49.632;8.346;2023-02-14T01:36:31;102550.94;;;5.96;67.16
19811;BME280;10065;49.632;8.346;2023-02-14T01:39:01;102551.09;;;5.91;67.02
19811;BME280;10065;49.632;8.346;2023-02-14T01:41:31;102552.88;;;5.91;67.13
19811;BME280;10065;49.632;8.346;2023-02-14T01:44:01;102549.28;;;5.93;66.90
19811;BME280;10065;49.632;8.346;2023-02-14T01:46:32;102553.81;;;5.90;67.02
19811;BME280;10065;49.632;8.346;2023-02-14T01:49:03;102555.88;;;5.82;67.21
19811;BME280;10065;49.632;8.346;2023-02-14T01:51:34;102557.88;;;5.77;67.68
19811;BME280;10065;49.632;8.346;2023-02-14T01:54:05;102559.31;;;5.84;67.27
19811;BME280;10065;49.632;8.346;2023-02-14T01:56:37;102562.66;;;5.89;67.05
19811;BME280;10065;49.632;8.346;2023-02-14T01:59:10;102566.78;;;5.94;66.70
19811;BME280;10065;49.632;8.346;2023-02-14T02:01:40;102569.72;;;5.87;66.68
19811;BME280;10065;49.632;8.346;2023-02-14T02:04:11;102567.34;;;5.81;67.21
19811;BME280;10065;49.632;8.346;2023-02-14T02:06:44;102573.56;;;5.80;66.98
19811;BME280;10065;49.632;8.346;2023-02-14T02:09:17;102569.06;;;5.82;67.04
19811;BME280;10065;49.632;8.346;2023-02-14T02:11:46;102570.53;;;5.68;67.31
19811;BME280;10065;49.632;8.346;2023-02-14T02:14:16;102574.72;;;5.73;67.38
19811;BME280;10065;49.632;8.346;2023-02-14T02:17:02;102572.94;;;5.73;66.83
19811;BME280;10065;49.632;8.346;2023-02-14T02:20:19;102581.41;;;5.39;67.53
19811;BME280;10065;49.632;8.346;2023-02-14T02:23:14;102579.59;;;5.41;67.83
19811;BME280;10065;49.632;8.346;2023-02-14T02:26:15;102569.84;;;5.43;67.80
19811;BME280;10065;49.632;8.346;2023-02-14T02:37:46;102568.41;;;5.56;67.17
19811;BME280;10065;49.632;8.346;2023-02-14T02:40:27;102565.19;;;5.50;67.37
19811;BME280;10065;49.632;8.346;2023-02-14T02:43:03;102564.59;;;5.43;67.50
19811;BME280;10065;49.632;8.346;2023-02-14T02:45:40;102561.69;;;5.49;67.19
19811;BME280;10065;49.632;8.346;2023-02-14T02:48:33;102554.25;;;5.39;67.30
19811;BME280;10065;49.632;8.346;2023-02-14T02:51:04;102561.28;;;5.38;67.32
19811;BME280;10065;49.632;8.346;2023-02-14T02:53:55;102547.47;;;5.33;67.50
19811;BME280;10065;49.632;8.346;2023-02-14T02:56:29;102559.72;;;5.34;67.28
19811;BME280;10065;49.632;8.346;2023-02-14T02:59:15;102559.72;;;5.34;67.11
19811;BME280;10065;49.632;8.346;2023-02-14T03:01:48;102552.84;;;5.30;67.16
19811;BME280;10065;49.632;8.346;2023-02-14T03:04:17;102558.13;;;5.30;67.14
19811;BME280;10065;49.632;8.346;2023-02-14T03:07:18;102555.44;;;5.32;66.87
19811;BME280;10065;49.632;8.346;2023-02-14T03:10:07;102558.13;;;5.30;66.90
19811;BME280;10065;49.632;8.346;2023-02-14T03:13:02;102561.66;;;5.29;66.71
19811;BME280;10065;49.632;8.346;2023-02-14T03:15:51;102560.25;;;5.20;66.94
19811;BME280;10065;49.632;8.346;2023-02-14T03:18:36;102558.63;;;5.18;66.91
19811;BME280;10065;49.632;8.346;2023-02-14T03:21:15;102558.88;;;5.12;66.95
19811;BME280;10065;49.632;8.346;2023-02-14T03:23:53;102566.66;;;5.15;67.09
19811;BME280;10065;49.632;8.346;2023-02-14T03:26:29;102563.09;;;5.16;66.90
19811;BME280;10065;49.632;8.346;2023-02-14T03:29:07;102556.22;;;5.12;66.97
19811;BME280;10065;49.632;8.346;2023-02-14T03:31:43;102557.91;;;5.14;66.91
19811;BME280;10065;49.632;8.346;2023-02-14T03:34:16;102562.00;;;5.00;67.19
19811;BME280;10065;49.632;8.346;2023-02-14T03:36:51;102555.94;;;4.98;67.02
19811;BME280;10065;49.632;8.346;2023-02-14T03:39:24;102562.44;;;4.89;67.58
19811;BME280;10065;49.632;8.346;2023-02-14T03:41:58;102574.06;;;4.83;67.77
19811;BME280;10065;49.632;8.346;2023-02-14T03:44:32;102558.19;;;4.85;67.58
19811;BME280;10065;49.632;8.346;2023-02-14T03:47:04;102565.94;;;4.66;67.97
19811;BME280;10065;49.632;8.346;2023-02-14T03:49:37;102556.88;;;4.51;68.43
19811;BME280;10065;49.632;8.346;2023-02-14T03:52:08;102556.28;;;4.45;68.84
19811;BME280;10065;49.632;8.346;2023-02-14T03:54:36;102563.69;;;4.34;68.99
19811;BME280;10065;49.632;8.346;2023-02-14T03:57:12;102568.38;;;4.26;69.49
19811;BME280;10065;49.632;8.346;2023-02-14T03:59:42;102565.66;;;4.29;69.72
19811;BME280;10065;49.632;8.346;2023-02-14T04:02:11;102568.22;;;4.30;70.04
19811;BME280;10065;49.632;8.346;2023-02-14T04:04:43;102570.31;;;4.44;69.65
19811;BME280;10065;49.632;8.346;2023-02-14T04:07:12;102577.06;;;4.51;68.92
19811;BME280;10065;49.632;8.346;2023-02-14T04:09:40;102582.66;;;4.42;68.84
19811;BME280;10065;49.632;8.346;2023-02-14T04:12:09;102585.50;;;4.12;69.85
19811;BME280;10065;49.632;8.346;2023-02-14T04:14:37;102589.56;;;3.96;70.69
19811;BME280;10065;49.632;8.346;2023-02-14T04:17:06;102590.34;;;3.75;71.41
19811;BME280;10065;49.632;8.346;2023-02-14T04:19:51;102584.44;;;3.68;71.92
19811;BME280;10065;49.632;8.346;2023-02-14T04:22:19;102586.34;;;3.63;71.94
19811;BME280;10065;49.632;8.346;2023-02-14T04:24:47;102588.16;;;3.61;72.08
19811;BME280;10065;49.632;8.346;2023-02-14T04:27:16;102592.19;;;3.71;71.57
19811;BME280;10065;49.632;8.346;2023-02-14T04:29:47;102596.00;;;3.63;72.25
19811;BME280;10065;49.632;8.346;2023-02-14T04:32:17;102596.72;;;3.42;73.84
19811;BME280;10065;49.632;8.346;2023-02-14T04:34:45;102595.84;;;3.43;74.61
19811;BME280;10065;49.632;8.346;2023-02-14T04:37:15;102594.03;;;3.43;75.57
19811;BME280;10065;49.632;8.346;2023-02-14T04:39:44;102594.59;;;3.53;75.99
19811;BME280;10065;49.632;8.346;2023-02-14T04:42:12;102591.97;;;3.53;76.47
19811;BME280;10065;49.632;8.346;2023-02-14T04:44:43;102587.75;;;3.49;76.73
19811;BME280;10065;49.632;8.346;2023-02-14T04:47:10;102585.34;;;3.43;77.53
19811;BME280;10065;49.632;8.346;2023-02-14T04:49:38;102589.66;;;3.44;78.22
19811;BME280;10065;49.632;8.346;2023-02-14T04:52:06;102588.56;;;3.51;80.23
19811;BME280;10065;49.632;8.346;2023-02-14T04:54:34;102579.66;;;3.79;79.84
19811;BME280;10065;49.632;8.346;2023-02-14T04:57:01;102588.88;;;3.91;77.88
19811;BME280;10065;49.632;8.346;2023-02-14T04:59:29;102580.59;;;4.03;77.01
19811;BME280;10065;49.632;8.346;2023-02-14T05:01:58;102582.94;;;4.11;76.32
19811;BME280;10065;49.632;8.346;2023-02-14T05:04:26;102583.47;;;4.21;75.69
19811;BME280;10065;49.632;8.346;2023-02-14T05:06:53;102580.31;;;4.34;74.72
19811;BME280;10065;49.632;8.346;2023-02-14T05:09:21;102577.97;;;4.27;74.49
19811;BME280;10065;49.632;8.346;2023-02-14T05:11:49;102574.53;;;4.25;74.73
19811;BME280;10065;49.632;8.346;2023-02-14T05:14:16;102573.47;;;4.30;75.12
19811;BME280;10065;49.632;8.346;2023-02-14T05:16:44;102574.44;;;4.28;74.91
19811;BME280;10065;49.632;8.346;2023-02-14T05:19:14;102570.66;;;4.35;74.83
19811;BME280;10065;49.632;8.346;2023-02-14T05:21:41;102572.09;;;4.43;74.01
19811;BME280;10065;49.632;8.346;2023-02-14T05:24:09;102572.97;;;4.21;75.01
19811;BME280;10065;49.632;8.346;2023-02-14T05:26:37;102578.53;;;4.11;76.02
19811;BME280;10065;49.632;8.346;2023-02-14T05:29:04;102574.78;;;4.19;75.98
19811;BME280;10065;49.632;8.346;2023-02-14T05:31:32;102578.06;;;4.24;75.77
19811;BME280;10065;49.632;8.346;2023-02-14T05:34:00;102574.53;;;4.25;75.56
19811;BME280;10065;49.632;8.346;2023-02-14T05:36:29;102584.25;;;4.23;75.75
19811;BME280;10065;49.632;8.346;2023-02-14T05:38:57;102580.03;;;4.19;75.86
19811;BME280;10065;49.632;8.346;2023-02-14T05:41:24;102579.31;;;4.13;76.54
19811;BME280;10065;49.632;8.346;2023-02-14T05:43:52;102571.34;;;4.16;76.29
19811;BME280;10065;49.632;8.346;2023-02-14T05:46:19;102566.63;;;4.26;76.52
19811;BME280;10065;49.632;8.346;2023-02-14T05:48:47;102576.59;;;4.40;76.01
19811;BME280;10065;49.632;8.346;2023-02-14T05:51:15;102562.63;;;4.39;75.50
19811;BME280;10065;49.632;8.346;2023-02-14T05:53:44;102570.78;;;4.32;76.23
19811;BME280;10065;49.632;8.346;2023-02-14T05:56:12;102572.38;;;4.36;76.28
19811;BME280;10065;49.632;8.346;2023-02-14T05:58:39;102571.00;;;4.49;75.73
19811;BME280;10065;49.632;8.346;2023-02-14T06:01:07;102568.16;;;4.55;75.27
19811;BME280;10065;49.632;8.346;2023-02-14T06:03:35;102571.69;;;4.54;75.22
19811;BME280;10065;49.632;8.346;2023-02-14T06:06:02;102578.66;;;4.55;75.46
19811;BME280;10065;49.632;8.346;2023-02-14T06:08:30;102578.09;;;4.47;75.54
19811;BME280;10065;49.632;8.346;2023-02-14T06:10:59;102584.31;;;4.44;75.62
19811;BME280;10065;49.632;8.346;2023-02-14T06:13:27;102580.16;;;4.39;76.15
19811;BME280;10065;49.632;8.346;2023-02-14T06:15:55;102586.03;;;4.45;76.25
19811;BME280;10065;49.632;8.346;2023-02-14T06:18:22;102587.69;;;4.48;75.80
19811;BME280;10065;49.632;8.346;2023-02-14T06:20:53;102587.69;;;4.48;76.02
19811;BME280;10065;49.632;8.346;2023-02-14T06:23:20;102591.84;;;4.53;75.96
19811;BME280;10065;49.632;8.346;2023-02-14T06:25:48;102596.75;;;4.63;75.81
19811;BME280;10065;49.632;8.346;2023-02-14T06:28:17;102600.06;;;4.68;75.51
19811;BME280;10065;49.632;8.346;2023-02-14T06:30:45;102587.31;;;4.80;75.17
19811;BME280;10065;49.632;8.346;2023-02-14T06:33:13;102590.59;;;4.85;74.30
19811;BME280;10065;49.632;8.346;2023-02-14T06:35:41;102591.88;;;4.75;74.24
19811;BME280;10065;49.632;8.346;2023-02-14T06:38:09;102594.19;;;4.61;75.27
19811;BME280;10065;49.632;8.346;2023-02-14T06:40:36;102594.28;;;4.58;76.14
19811;BME280;10065;49.632;8.346;2023-02-14T06:43:04;102602.94;;;4.62;75.70
19811;BME280;10065;49.632;8.346;2023-02-14T06:45:37;102608.84;;;4.67;75.80
19811;BME280;10065;49.632;8.346;2023-02-14T06:48:05;102612.81;;;4.55;76.20
19811;BME280;10065;49.632;8.346;2023-02-14T06:50:32;102618.50;;;4.66;75.97
19811;BME280;10065;49.632;8.346;2023-02-14T06:53:00;102615.53;;;4.75;75.77
19811;BME280;10065;49.632;8.346;2023-02-14T06:55:28;102610.22;;;4.77;75.46
19811;BME280;10065;49.632;8.346;2023-02-14T06:57:55;102614.63;;;4.76;75.46
19811;BME280;10065;49.632;8.346;2023-02-14T07:00:23;102615.38;;;4.80;75.42
19811;BME280;10065;49.632;8.346;2023-02-14T07:02:52;102602.28;;;4.78;75.38
19811;BME280;10065;49.632;8.346;2023-02-14T07:05:20;102616.13;;;4.83;75.15
19811;BME280;10065;49.632;8.346;2023-02-14T07:07:48;102607.53;;;4.78;75.17
19811;BME280;10065;49.632;8.346;2023-02-14T07:10:16;102607.53;;;4.78;75.27
19811;BME280;10065;49.632;8.346;2023-02-14T07:12:44;102613.28;;;4.88;74.73
19811;BME280;10065;49.632;8.346;2023-02-14T07:15:14;102615.97;;;4.86;74.82
19811;BME280;10065;49.632;8.346;2023-02-14T07:17:41;102618.91;;;4.79;75.17
19811;BME280;10065;49.632;8.346;2023-02-14T07:20:12;102616.34;;;4.77;75.51
19811;BME280;10065;49.632;8.346;2023-02-14T07:22:39;102612.78;;;4.78;75.52
19811;BME280;10065;49.632;8.346;2023-02-14T07:25:07;102614.41;;;4.82;75.51
19811;BME280;10065;49.632;8.346;2023-02-14T07:27:35;102624.00;;;4.83;75.18
19811;BME280;10065;49.632;8.346;2023-02-14T07:30:03;102613.06;;;4.94;74.84
19811;BME280;10065;49.632;8.346;2023-02-14T07:32:32;102623.72;;;4.91;74.88
19811;BME280;10065;49.632;8.346;2023-02-14T07:35:00;102622.84;;;4.90;74.78
19811;BME280;10065;49.632;8.346;2023-02-14T07:37:30;102619.66;;;4.82;74.68
19811;BME280;10065;49.632;8.346;2023-02-14T07:39:58;102616.47;;;4.74;75.07
19811;BME280;10065;49.632;8.346;2023-02-14T07:42:26;102616.34;;;4.77;75.21
19811;BME280;10065;49.632;8.346;2023-02-14T07:44:53;102611.84;;;4.81;74.98
19811;BME280;10065;49.632;8.346;2023-02-14T07:47:21;102611.44;;;4.68;75.50
19811;BME280;10065;49.632;8.346;2023-02-14T07:49:50;102609.72;;;4.67;75.70
19811;BME280;10065;49.632;8.346;2023-02-14T07:52:18;102613.16;;;4.69;76.08
19811;BME280;10065;49.632;8.346;2023-02-14T07:54:48;102614.50;;;4.79;75.93
19811;BME280;10065;49.632;8.346;2023-02-14T07:57:15;102611.78;;;4.82;75.33
19811;BME280;10065;49.632;8.346;2023-02-14T07:59:43;102609.50;;;4.73;75.46
19811;BME280;10065;49.632;8.346;2023-02-14T08:02:11;102617.34;;;4.75;75.91
19811;BME280;10065;49.632;8.346;2023-02-14T08:04:39;102613.03;;;4.72;76.00
19811;BME280;10065;49.632;8.346;2023-02-14T08:07:09;102609.50;;;4.73;75.88
19811;BME280;10065;49.632;8.346;2023-02-14T08:09:37;102609.72;;;4.67;76.44
19811;BME280;10065;49.632;8.346;2023-02-14T08:12:06;102609.06;;;4.84;75.95
19811;BME280;10065;49.632;8.346;2023-02-14T08:14:51;102610.72;;;4.86;75.80
19811;BME280;10065;49.632;8.346;2023-02-14T08:17:19;102605.47;;;4.86;75.91
19811;BME280;10065;49.632;8.346;2023-02-14T08:19:47;102601.44;;;5.00;75.42
19811;BME280;10065;49.632;8.346;2023-02-14T08:22:14;102614.41;;;5.04;74.69
19811;BME280;10065;49.632;8.346;2023-02-14T08:24:43;102610.88;;;5.05;74.57
19811;BME280;10065;49.632;8.346;2023-02-14T08:27:12;102612.94;;;4.97;75.33
19811;BME280;10065;49.632;8.346;2023-02-14T08:29:40;102615.25;;;5.05;75.44
19811;BME280;10065;49.632;8.346;2023-02-14T08:32:07;102611.34;;;5.15;75.20
19811;BME280;10065;49.632;8.346;2023-02-14T08:34:35;102608.34;;;5.24;74.98
19811;BME280;10065;49.632;8.346;2023-02-14T08:37:03;102608.63;;;5.38;74.12
19811;BME280;10065;49.632;8.346;2023-02-14T08:39:31;102602.72;;;5.33;73.91
19811;BME280;10065;49.632;8.346;2023-02-14T08:41:58;102607.19;;;5.31;73.63
19811;BME280;10065;49.632;8.346;2023-02-14T08:44:27;102602.91;;;5.28;73.75
19811;BME280;10065;49.632;8.346;2023-02-14T08:46:55;102610.69;;;5.32;73.50
19811;BME280;10065;49.632;8.346;2023-02-14T08:49:23;102609.09;;;5.27;73.71
19811;BME280;10065;49.632;8.346;2023-02-14T08:51:52;102616.19;;;5.25;73.74
19811;BME280;10065;49.632;8.346;2023-02-14T08:54:20;102606.47;;;5.27;73.47
19811;BME280;10065;49.632;8.346;2023-02-14T08:56:48;102606.00;;;5.38;73.38
19811;BME280;10065;49.632;8.346;2023-02-14T08:59:16;102605.28;;;5.35;72.87
19811;BME280;10065;49.632;8.346;2023-02-14T09:01:45;102605.72;;;5.24;73.71
19811;BME280;10065;49.632;8.346;2023-02-14T09:04:12;102613.56;;;5.25;73.95
19811;BME280;10065;49.632;8.346;2023-02-14T09:06:40;102610.88;;;5.27;73.78
19811;BME280;10065;49.632;8.346;2023-02-14T09:09:08;102608.31;;;5.25;73.62
19811;BME280;10065;49.632;8.346;2023-02-14T09:11:35;102607.44;;;5.25;73.68
19811;BME280;10065;49.632;8.346;2023-02-14T09:14:03;102605.72;;;5.24;73.91
19811;BME280;10065;49.632;8.346;2023-02-14T09:16:31;102612.56;;;5.28;73.33
19811;BME280;10065;49.632;8.346;2023-02-14T09:19:00;102612.81;;;5.22;73.72
19811;BME280;10065;49.632;8.346;2023-02-14T09:21:28;102604.66;;;5.28;73.70
19811;BME280;10065;49.632;8.346;2023-02-14T09:23:57;102611.53;;;5.32;73.30
19811;BME280;10065;49.632;8.346;2023-02-14T09:26:24;102610.72;;;5.30;73.68
19811;BME280;10065;49.632;8.346;2023-02-14T09:28:53;102600.56;;;5.43;73.12
19811;BME280;10065;49.632;8.346;2023-02-14T09:31:22;102602.22;;;5.45;72.90
19811;BME280;10065;49.632;8.346;2023-02-14T09:33:51;102611.31;;;5.37;72.94
19811;BME280;10065;49.632;8.346;2023-02-14T09:36:20;102605.72;;;5.24;73.65
19811;BME280;10065;49.632;8.346;2023-02-14T09:38:47;102603.22;;;5.21;73.86
19811;BME280;10065;49.632;8.346;2023-02-14T09:41:36;102599.22;;;5.11;74.00
19811;BME280;10065;49.632;8.346;2023-02-14T09:44:17;102605.97;;;5.18;74.79
19811;BME280;10065;49.632;8.346;2023-02-14T09:46:51;102606.81;;;5.40;73.43
19811;BME280;10065;49.632;8.346;2023-02-14T09:49:29;102602.69;;;5.55;72.54
19811;BME280;10065;49.632;8.346;2023-02-14T09:52:01;102600.25;;;5.50;72.63
19811;BME280;10065;49.632;8.346;2023-02-14T09:54:32;102598.81;;;5.43;72.68
19811;BME280;10065;49.632;8.346;2023-02-14T09:57:06;102599.72;;;5.42;73.30
19811;BME280;10065;49.632;8.346;2023-02-14T09:59:42;102602.88;;;5.50;73.04
19811;BME280;10065;49.632;8.346;2023-02-14T10:02:21;102597.13;;;5.62;72.41
19811;BME280;10065;49.632;8.346;2023-02-14T10:05:05;102599.94;;;5.58;72.65
19811;BME280;10065;49.632;8.346;2023-02-14T10:07:48;102598.09;;;5.60;72.76
19811;BME280;10065;49.632;8.346;2023-02-14T10:10:25;102589.22;;;5.62;72.68
19811;BME280;10065;49.632;8.346;2023-02-14T10:13:00;102590.84;;;5.65;72.55
19811;BME280;10065;49.632;8.346;2023-02-14T10:15:32;102588.94;;;5.68;72.02
19811;BME280;10065;49.632;8.346;2023-02-14T10:18:03;102591.69;;;5.65;72.50
19811;BME280;10065;49.632;8.346;2023-02-14T10:20:35;102593.34;;;5.68;72.50
19811;BME280;10065;49.632;8.346;2023-02-14T10:23:26;102595.78;;;5.73;71.26
19811;BME280;10065;49.632;8.346;2023-02-14T10:26:00;102594.66;;;5.58;72.04
19811;BME280;10065;49.632;8.346;2023-02-14T10:28:31;102589.19;;;5.42;72.71
19811;BME280;10065;49.632;8.346;2023-02-14T10:31:17;102594.94;;;5.52;72.62
19811;BME280;10065;49.632;8.346;2023-02-14T10:33:51;102592.25;;;5.53;72.53
19811;BME280;10065;49.632;8.346;2023-02-14T10:36:49;102592.34;;;5.50;72.45
19811;BME280;10065;49.632;8.346;2023-02-14T10:39:36;102586.22;;;5.50;72.43
19811;BME280;10065;49.632;8.346;2023-02-14T10:42:13;102589.28;;;5.61;72.56
19811;BME280;10065;49.632;8.346;2023-02-14T10:44:49;102578.34;;;5.70;71.73
19811;BME280;10065;49.632;8.346;2023-02-14T10:47:29;102578.59;;;5.64;71.99
19811;BME280;10065;49.632;8.346;2023-02-14T10:50:05;102579.97;;;5.73;71.62
19811;BME280;10065;49.632;8.346;2023-02-14T10:52:39;102568.53;;;5.74;71.41
19811;BME280;10065;49.632;8.346;2023-02-14T10:55:14;102563.41;;;5.71;71.43
19811;BME280;10065;49.632;8.346;2023-02-14T10:57:58;102564.19;;;5.73;71.83
19811;BME280;10065;49.632;8.346;2023-02-14T11:00:32;102564.06;;;5.76;71.50
19811;BME280;10065;49.632;8.346;2023-02-14T11:03:02;102560.25;;;5.83;71.00
19811;BME280;10065;49.632;8.346;2023-02-14T11:05:35;102561.81;;;5.88;70.84
19811;BME280;10065;49.632;8.346;2023-02-14T11:08:13;102554.91;;;5.84;70.78
19811;BME280;10065;49.632;8.346;2023-02-14T11:10:42;102553.13;;;5.85;70.95
19811;BME280;10065;49.632;8.346;2023-02-14T11:13:35;102551.09;;;5.91;70.53
19811;BME280;10065;49.632;8.346;2023-02-14T11:16:06;102545.34;;;5.82;71.00
19811;BME280;10065;49.632;8.346;2023-02-14T11:18:36;102552.22;;;5.86;71.12
19811;BME280;10065;49.632;8.346;2023-02-14T11:21:08;102550.25;;;5.91;70.95
19811;BME280;10065;49.632;8.346;2023-02-14T11:23:38;102547.69;;;5.89;70.95
19811;BME280;10065;49.632;8.346;2023-02-14T11:26:13;102543.41;;;5.87;71.04
19811;BME280;10065;49.632;8.346;2023-02-14T11:28:49;102537.47;;;5.82;71.26
19811;BME280;10065;49.632;8.346;2023-02-14T11:31:25;102533.59;;;5.90;71.09
19811;BME280;10065;49.632;8.346;2023-02-14T11:33:54;102540.38;;;5.96;70.66
19811;BME280;10065;49.632;8.346;2023-02-14T11:36:23;102535.25;;;5.93;70.56
19811;BME280;10065;49.632;8.346;2023-02-14T11:38:59;102531.06;;;5.89;70.91
19811;BME280;10065;49.632;8.346;2023-02-14T11:41:45;102523.78;;;5.94;71.17
19811;BME280;10065;49.632;8.346;2023-02-14T11:44:16;102526.00;;;6.03;70.58
19811;BME280;10065;49.632;8.346;2023-02-14T11:46:48;102519.31;;;5.96;70.62
19811;BME280;10065;49.632;8.346;2023-02-14T11:49:28;102517.78;;;5.90;71.13
19811;BME280;10065;49.632;8.346;2023-02-14T11:51:57;102502.25;;;5.84;71.27
19811;BME280;10065;49.632;8.346;2023-02-14T11:54:32;102511.06;;;5.83;71.33
19811;BME280;10065;49.632;8.346;2023-02-14T11:57:04;102507.78;;;5.78;71.71
19811;BME280;10065;49.632;8.346;2023-02-14T11:59:37;102506.94;;;5.78;72.14
19811;BME280;10065;49.632;8.346;2023-02-14T12:02:20;102493.97;;;5.73;72.16
19811;BME280;10065;49.632;8.346;2023-02-14T12:04:51;102491.25;;;5.75;72.62
19811;BME280;10065;49.632;8.346;2023-02-14T12:07:25;102487.44;;;5.82;72.72
19811;BME280;10065;49.632;8.346;2023-02-14T12:10:15;102483.00;;;6.02;72.15
19811;BME280;10065;49.632;8.346;2023-02-14T12:12:58;102483.81;;;6.04;71.50
19811;BME280;10065;49.632;8.346;2023-02-14T12:15:34;102487.44;;;5.82;72.21
19811;BME280;10065;49.632;8.346;2023-02-14T12:18:44;102486.38;;;5.86;72.06
19811;BME280;10065;49.632;8.346;2023-02-14T12:21:24;102483.03;;;5.82;72.61
19811;BME280;10065;49.632;8.346;2023-02-14T12:24:01;102474.94;;;5.87;72.68
19811;BME280;10065;49.632;8.346;2023-02-14T12:26:34;102472.09;;;5.91;72.55
19811;BME280;10065;49.632;8.346;2023-02-14T12:29:12;102472.03;;;5.93;72.20
19811;BME280;10065;49.632;8.346;2023-02-14T12:31:43;102465.91;;;5.92;71.74
19811;BME280;10065;49.632;8.346;2023-02-14T12:34:14;102468.09;;;5.83;72.46
19811;BME280;10065;49.632;8.346;2023-02-14T12:37:00;102470.50;;;5.68;73.23
19811;BME280;10065;49.632;8.346;2023-02-14T12:39:36;102470.09;;;5.78;73.34
19811;BME280;10065;49.632;8.346;2023-02-14T12:42:17;102459.47;;;5.79;73.30
19811;BME280;10065;49.632;8.346;2023-02-14T12:44:58;102461.72;;;5.88;73.25
19811;BME280;10065;49.632;8.346;2023-02-14T12:47:34;102456.13;;;5.96;73.30
19811;BME280;10065;49.632;8.346;2023-02-14T12:53:25;102454.78;;;6.06;73.29
19811;BME280;10065;49.632;8.346;2023-02-14T12:56:02;102451.91;;;6.11;73.23
19811;BME280;10065;49.632;8.346;2023-02-14T12:58:41;102447.38;;;6.14;73.26
19811;BME280;10065;49.632;8.346;2023-02-14T13:01:30;102449.22;;;6.12;72.76
19811;BME280;10065;49.632;8.346;2023-02-14T13:04:18;102442.66;;;6.21;72.78
19811;BME280;10065;49.632;8.346;2023-02-14T13:06:53;102442.53;;;6.24;72.39
19811;BME280;10065;49.632;8.346;2023-02-14T13:09:32;102432.97;;;6.21;71.87
19811;BME280;10065;49.632;8.346;2023-02-14T13:12:14;102431.38;;;6.17;72.14
19811;BME280;10065;49.632;8.346;2023-02-14T13:14:57;102418.09;;;6.20;71.90
19811;BME280;10065;49.632;8.346;2023-02-14T13:17:35;102421.34;;;6.25;71.92
19811;BME280;10065;49.632;8.346;2023-02-14T13:20:30;102425.56;;;6.29;71.75
19811;BME280;10065;49.632;8.346;2023-02-14T13:23:02;102415.44;;;6.20;71.87
19811;BME280;10065;49.632;8.346;2023-02-14T13:25:35;102418.72;;;6.25;71.73
19811;BME280;10065;49.632;8.346;2023-02-14T13:28:10;102409.88;;;6.26;71.28
19811;BME280;10065;49.632;8.346;2023-02-14T13:30:39;102408.03;;;6.28;71.48
19811;BME280;10065;49.632;8.346;2023-02-14T13:33:20;102405.31;;;6.30;71.54
19811;BME280;10065;49.632;8.346;2023-02-14T13:35:53;102407.91;;;6.31;71.46
19811;BME280;10065;49.632;8.346;2023-02-14T13:38:23;102408.88;;;6.29;71.88
19811;BME280;10065;49.632;8.346;2023-02-14T13:40:51;102412.31;;;6.31;72.04